sensor_id;sensor_type;location;lat;lon;timestamp;temperature;humidity
4908;DHT22;64375;51.540;7.364;2023-11-21T00:01:15;10.90;99.90
4908;DHT22;64375;51.540;7.364;2023-11-21T00:03:52;10.80;99.90
4908;DHT22;64375;51.540;7.364;2023-11-21T00:06:25;11.00;99.90
4908;DHT22;64375;51.540;7.364;2023-11-21T00:08:56;11.30;99.90
4908;DHT22;64375;51.540;7.364;2023-11-21T00:11:24;11.60;99.90
4908;DHT22;64375;51.540;7.364;2023-11-21T00:13:59;11.80;99.90
4908;DHT22;64375;51.540;7.364;2023-11-21T00:16:30;11.80;99.90
4908;DHT22;64375;51.540;7.364;2023-11-21T00:19:03;12.00;99.90
4908;DHT22;64375;51.540;7.364;2023-11-21T00:21:39;12.20;99.90
4908;DHT22;64375;51.540;7.364;2023-11-21T00:24:07;12.40;99.90
4908;DHT22;64375;51.540;7.364;2023-11-21T00:26:35;12.20;99.90
4908;DHT22;64375;51.540;7.364;2023-11-21T00:29:04;12.30;99.90
4908;DHT22;64375;51.540;7.364;2023-11-21T00:31:34;12.40;99.90
4908;DHT22;64375;51.540;7.364;2023-11-21T00:34:03;12.60;99.90
4908;DHT22;64375;51.540;7.364;2023-11-21T00:36:32;12.60;99.90
4908;DHT22;64375;51.540;7.364;2023-11-21T00:39:05;12.60;99.90
4908;DHT22;64375;51.540;7.364;2023-11-21T00:41:40;12.80;99.90
4908;DHT22;64375;51.540;7.364;2023-11-21T00:44:08;12.70;99.90
4908;DHT22;64375;51.540;7.364;2023-11-21T00:46:45;12.70;99.90
4908;DHT22;64375;51.540;7.364;2023-11-21T00:49:16;12.80;99.90
4908;DHT22;64375;51.540;7.364;2023-11-21T00:51:50;12.80;99.90
4908;DHT22;64375;51.540;7.364;2023-11-21T00:54:19;12.90;99.90
4908;DHT22;64375;51.540;7.364;2023-11-21T00:56:53;12.90;99.90
4908;DHT22;64375;51.540;7.364;2023-11-21T00:59:21;12.90;99.90
4908;DHT22;64375;51.540;7.364;2023-11-21T01:02:04;12.90;99.90
4908;DHT22;64375;51.540;7.364;2023-11-21T01:04:32;13.00;99.90
4908;DHT22;64375;51.540;7.364;2023-11-21T01:07:03;13.10;99.90
4908;DHT22;64375;51.540;7.364;2023-11-21T01:09:51;13.10;99.90
4908;DHT22;64375;51.540;7.364;2023-11-21T01:12:19;13.10;99.90
4908;DHT22;64375;51.540;7.364;2023-11-21T01:14:47;13.00;99.90
4908;DHT22;64375;51.540;7.364;2023-11-21T01:17:18;12.90;99.90
4908;DHT22;64375;51.540;7.364;2023-11-21T01:19:46;12.60;99.90
4908;DHT22;64375;51.540;7.364;2023-11-21T01:22:14;12.60;99.90
4908;DHT22;64375;51.540;7.364;2023-11-21T01:24:50;12.70;99.90
4908;DHT22;64375;51.540;7.364;2023-11-21T01:27:22;12.80;99.90
4908;DHT22;64375;51.540;7.364;2023-11-21T01:29:50;12.70;99.90
4908;DHT22;64375;51.540;7.364;2023-11-21T01:32:31;12.60;99.90
4908;DHT22;64375;51.540;7.364;2023-11-21T01:34:59;12.60;99.90
4908;DHT22;64375;51.540;7.364;2023-11-21T01:37:35;12.60;99.90
4908;DHT22;64375;51.540;7.364;2023-11-21T01:40:06;12.60;99.90
4908;DHT22;64375;51.540;7.364;2023-11-21T01:42:39;12.70;99.90
4908;DHT22;64375;51.540;7.364;2023-11-21T01:45:10;12.80;99.90
4908;DHT22;64375;51.540;7.364;2023-11-21T01:47:48;12.80;99.90
4908;DHT22;64375;51.540;7.364;2023-11-21T01:50:30;12.80;99.90
4908;DHT22;64375;51.540;7.364;2023-11-21T01:53:01;12.80;99.90
4908;DHT22;64375;51.540;7.364;2023-11-21T01:55:33;12.80;99.90
4908;DHT22;64375;51.540;7.364;2023-11-21T01:58:03;12.90;99.90
4908;DHT22;64375;51.540;7.364;2023-11-21T02:00:33;12.90;99.90
4908;DHT22;64375;51.540;7.364;2023-11-21T02:03:37;12.90;99.90
4908;DHT22;64375;51.540;7.364;2023-11-21T02:06:11;12.90;99.90
4908;DHT22;64375;51.540;7.364;2023-11-21T02:08:39;12.90;99.90
4908;DHT22;64375;51.540;7.364;2023-11-21T02:11:12;12.90;99.90
4908;DHT22;64375;51.540;7.364;2023-11-21T02:13:48;12.90;99.90
4908;DHT22;64375;51.540;7.364;2023-11-21T02:16:19;12.90;99.90
4908;DHT22;64375;51.540;7.364;2023-11-21T02:18:49;13.00;99.90
4908;DHT22;64375;51.540;7.364;2023-11-21T02:21:21;13.00;99.90
4908;DHT22;64375;51.540;7.364;2023-11-21T02:23:50;13.00;99.90
4908;DHT22;64375;51.540;7.364;2023-11-21T02:26:25;13.10;99.90
4908;DHT22;64375;51.540;7.364;2023-11-21T02:28:53;13.00;99.90
4908;DHT22;64375;51.540;7.364;2023-11-21T02:31:24;13.00;99.90
4908;DHT22;64375;51.540;7.364;2023-11-21T02:33:52;13.00;99.90
4908;DHT22;64375;51.540;7.364;2023-11-21T02:36:20;12.90;99.90
4908;DHT22;64375;51.540;7.364;2023-11-21T02:38:52;12.90;99.90
4908;DHT22;64375;51.540;7.364;2023-11-21T02:41:26;13.00;99.90
4908;DHT22;64375;51.540;7.364;2023-11-21T02:43:55;13.00;99.90
4908;DHT22;64375;51.540;7.364;2023-11-21T02:46:26;13.00;99.90
4908;DHT22;64375;51.540;7.364;2023-11-21T02:48:54;13.00;99.90
4908;DHT22;64375;51.540;7.364;2023-11-21T02:51:22;13.00;99.90
4908;DHT22;64375;51.540;7.364;2023-11-21T02:53:51;13.00;99.90
4908;DHT22;64375;51.540;7.364;2023-11-21T02:56:25;13.00;99.90
4908;DHT22;64375;51.540;7.364;2023-11-21T02:58:57;13.00;99.90
4908;DHT22;64375;51.540;7.364;2023-11-21T03:01:28;13.10;99.90
4908;DHT22;64375;51.540;7.364;2023-11-21T03:03:59;13.10;99.90
4908;DHT22;64375;51.540;7.364;2023-11-21T03:06:27;13.20;99.90
4908;DHT22;64375;51.540;7.364;2023-11-21T03:08:56;13.20;99.90
4908;DHT22;64375;51.540;7.364;2023-11-21T03:11:27;13.30;99.90
4908;DHT22;64375;51.540;7.364;2023-11-21T03:13:57;13.30;99.90
4908;DHT22;64375;51.540;7.364;2023-11-21T03:16:25;13.30;99.90
4908;DHT22;64375;51.540;7.364;2023-11-21T03:19:06;13.30;99.90
4908;DHT22;64375;51.540;7.364;2023-11-21T03:21:35;13.20;99.90
4908;DHT22;64375;51.540;7.364;2023-11-21T03:24:19;13.20;99.90
4908;DHT22;64375;51.540;7.364;2023-11-21T03:26:49;13.20;99.90
4908;DHT22;64375;51.540;7.364;2023-11-21T03:29:19;13.10;99.90
4908;DHT22;64375;51.540;7.364;2023-11-21T03:31:51;13.10;99.90
4908;DHT22;64375;51.540;7.364;2023-11-21T03:34:24;13.10;99.90
4908;DHT22;64375;51.540;7.364;2023-11-21T03:36:55;13.10;99.90
4908;DHT22;64375;51.540;7.364;2023-11-21T03:39:27;13.10;99.90
4908;DHT22;64375;51.540;7.364;2023-11-21T03:42:02;13.00;99.90
4908;DHT22;64375;51.540;7.364;2023-11-21T03:44:32;13.00;99.90
4908;DHT22;64375;51.540;7.364;2023-11-21T03:47:00;13.00;99.90
4908;DHT22;64375;51.540;7.364;2023-11-21T03:49:31;13.00;99.90
4908;DHT22;64375;51.540;7.364;2023-11-21T03:51:59;13.00;99.90
4908;DHT22;64375;51.540;7.364;2023-11-21T03:54:31;12.90;99.90
4908;DHT22;64375;51.540;7.364;2023-11-21T03:57:02;13.00;99.90
4908;DHT22;64375;51.540;7.364;2023-11-21T03:59:33;13.00;99.90
4908;DHT22;64375;51.540;7.364;2023-11-21T04:02:01;13.00;99.90
4908;DHT22;64375;51.540;7.364;2023-11-21T04:04:32;13.00;99.90
4908;DHT22;64375;51.540;7.364;2023-11-21T04:07:00;13.00;99.90
4908;DHT22;64375;51.540;7.364;2023-11-21T04:09:32;13.00;99.90
4908;DHT22;64375;51.540;7.364;2023-11-21T04:12:04;13.00;99.90
4908;DHT22;64375;51.540;7.364;2023-11-21T04:14:35;13.10;99.90
4908;DHT22;64375;51.540;7.364;2023-11-21T04:17:09;13.20;99.90
4908;DHT22;64375;51.540;7.364;2023-11-21T04:19:37;13.20;99.90
4908;DHT22;64375;51.540;7.364;2023-11-21T04:22:05;13.10;99.90
4908;DHT22;64375;51.540;7.364;2023-11-21T04:24:34;13.00;99.90
4908;DHT22;64375;51.540;7.364;2023-11-21T04:27:02;12.90;99.90
4908;DHT22;64375;51.540;7.364;2023-11-21T04:29:30;12.70;99.90
4908;DHT22;64375;51.540;7.364;2023-11-21T04:31:58;12.60;99.90
4908;DHT22;64375;51.540;7.364;2023-11-21T04:34:26;12.50;99.90
4908;DHT22;64375;51.540;7.364;2023-11-21T04:36:56;12.50;99.90
4908;DHT22;64375;51.540;7.364;2023-11-21T04:39:24;12.40;99.90
4908;DHT22;64375;51.540;7.364;2023-11-21T04:41:53;12.10;99.90
4908;DHT22;64375;51.540;7.364;2023-11-21T04:44:21;12.00;99.90
4908;DHT22;64375;51.540;7.364;2023-11-21T04:46:49;11.90;99.90
4908;DHT22;64375;51.540;7.364;2023-11-21T04:49:23;12.00;99.90
4908;DHT22;64375;51.540;7.364;2023-11-21T04:51:51;12.00;99.90
4908;DHT22;64375;51.540;7.364;2023-11-21T04:54:25;12.20;99.90
4908;DHT22;64375;51.540;7.364;2023-11-21T04:56:56;12.20;99.90
4908;DHT22;64375;51.540;7.364;2023-11-21T04:59:24;12.30;99.90
4908;DHT22;64375;51.540;7.364;2023-11-21T05:01:53;12.20;99.90
4908;DHT22;64375;51.540;7.364;2023-11-21T05:04:21;12.10;99.90
4908;DHT22;64375;51.540;7.364;2023-11-21T05:06:50;11.90;99.90
4908;DHT22;64375;51.540;7.364;2023-11-21T05:09:18;11.90;99.90
4908;DHT22;64375;51.540;7.364;2023-11-21T05:11:51;11.90;99.90
4908;DHT22;64375;51.540;7.364;2023-11-21T05:14:21;11.90;99.90
4908;DHT22;64375;51.540;7.364;2023-11-21T05:16:49;11.90;99.90
4908;DHT22;64375;51.540;7.364;2023-11-21T05:19:18;11.80;99.90
4908;DHT22;64375;51.540;7.364;2023-11-21T05:21:47;11.80;99.90
4908;DHT22;64375;51.540;7.364;2023-11-21T05:24:15;11.90;99.90
4908;DHT22;64375;51.540;7.364;2023-11-21T05:26:51;12.00;99.90
4908;DHT22;64375;51.540;7.364;2023-11-21T05:29:23;11.90;99.90
4908;DHT22;64375;51.540;7.364;2023-11-21T05:31:58;11.90;99.90
4908;DHT22;64375;51.540;7.364;2023-11-21T05:34:29;12.00;99.90
4908;DHT22;64375;51.540;7.364;2023-11-21T05:37:00;11.80;99.90
4908;DHT22;64375;51.540;7.364;2023-11-21T05:39:37;11.60;99.90
4908;DHT22;64375;51.540;7.364;2023-11-21T05:42:05;11.60;99.90
4908;DHT22;64375;51.540;7.364;2023-11-21T05:44:34;11.50;99.90
4908;DHT22;64375;51.540;7.364;2023-11-21T05:47:05;11.40;99.90
4908;DHT22;64375;51.540;7.364;2023-11-21T05:49:37;11.40;99.90
4908;DHT22;64375;51.540;7.364;2023-11-21T05:52:07;11.50;99.90
4908;DHT22;64375;51.540;7.364;2023-11-21T05:54:35;11.50;99.90
4908;DHT22;64375;51.540;7.364;2023-11-21T05:57:12;11.40;99.90
4908;DHT22;64375;51.540;7.364;2023-11-21T05:59:41;11.40;99.90
4908;DHT22;64375;51.540;7.364;2023-11-21T06:02:18;11.50;99.90
4908;DHT22;64375;51.540;7.364;2023-11-21T06:04:50;11.40;99.90
4908;DHT22;64375;51.540;7.364;2023-11-21T06:07:18;11.30;99.90
4908;DHT22;64375;51.540;7.364;2023-11-21T06:09:49;11.20;99.90
4908;DHT22;64375;51.540;7.364;2023-11-21T06:12:20;11.40;99.90
4908;DHT22;64375;51.540;7.364;2023-11-21T06:14:49;11.50;99.90
4908;DHT22;64375;51.540;7.364;2023-11-21T06:17:23;11.50;99.90
4908;DHT22;64375;51.540;7.364;2023-11-21T06:20:00;11.30;99.90
4908;DHT22;64375;51.540;7.364;2023-11-21T06:22:30;11.20;99.90
4908;DHT22;64375;51.540;7.364;2023-11-21T06:25:05;11.30;99.90
4908;DHT22;64375;51.540;7.364;2023-11-21T06:27:33;11.50;99.90
4908;DHT22;64375;51.540;7.364;2023-11-21T06:30:03;11.50;99.90
4908;DHT22;64375;51.540;7.364;2023-11-21T06:32:37;11.50;99.90
4908;DHT22;64375;51.540;7.364;2023-11-21T06:35:07;11.40;99.90
4908;DHT22;64375;51.540;7.364;2023-11-21T06:37:36;11.70;99.90
4908;DHT22;64375;51.540;7.364;2023-11-21T06:40:06;11.80;99.90
4908;DHT22;64375;51.540;7.364;2023-11-21T06:42:40;11.70;99.90
4908;DHT22;64375;51.540;7.364;2023-11-21T06:45:10;11.50;99.90
4908;DHT22;64375;51.540;7.364;2023-11-21T06:47:41;11.40;99.90
4908;DHT22;64375;51.540;7.364;2023-11-21T06:50:16;11.40;99.90
4908;DHT22;64375;51.540;7.364;2023-11-21T06:52:44;11.40;99.90
4908;DHT22;64375;51.540;7.364;2023-11-21T06:55:12;11.20;99.90
4908;DHT22;64375;51.540;7.364;2023-11-21T06:57:40;11.10;99.90
4908;DHT22;64375;51.540;7.364;2023-11-21T07:00:10;11.60;99.90
4908;DHT22;64375;51.540;7.364;2023-11-21T07:02:41;11.80;99.90
4908;DHT22;64375;51.540;7.364;2023-11-21T07:05:09;11.80;99.90
4908;DHT22;64375;51.540;7.364;2023-11-21T07:07:37;11.80;99.90
4908;DHT22;64375;51.540;7.364;2023-11-21T07:10:06;11.90;99.90
4908;DHT22;64375;51.540;7.364;2023-11-21T07:12:35;11.90;99.90
4908;DHT22;64375;51.540;7.364;2023-11-21T07:15:04;11.90;99.90
4908;DHT22;64375;51.540;7.364;2023-11-21T07:17:37;11.90;99.90
4908;DHT22;64375;51.540;7.364;2023-11-21T07:20:08;11.90;99.90
4908;DHT22;64375;51.540;7.364;2023-11-21T07:22:42;11.90;99.90
4908;DHT22;64375;51.540;7.364;2023-11-21T07:25:17;11.90;99.90
4908;DHT22;64375;51.540;7.364;2023-11-21T07:27:47;11.90;99.90
4908;DHT22;64375;51.540;7.364;2023-11-21T07:30:18;12.10;99.90
4908;DHT22;64375;51.540;7.364;2023-11-21T07:32:52;12.20;99.90
4908;DHT22;64375;51.540;7.364;2023-11-21T07:35:20;12.10;99.90
4908;DHT22;64375;51.540;7.364;2023-11-21T07:38:02;12.10;99.90
4908;DHT22;64375;51.540;7.364;2023-11-21T07:40:32;12.10;99.90
4908;DHT22;64375;51.540;7.364;2023-11-21T07:43:00;12.30;99.90
4908;DHT22;64375;51.540;7.364;2023-11-21T07:45:31;12.40;99.90
4908;DHT22;64375;51.540;7.364;2023-11-21T07:48:06;12.50;99.90
4908;DHT22;64375;51.540;7.364;2023-11-21T07:50:34;12.70;99.90
4908;DHT22;64375;51.540;7.364;2023-11-21T07:53:05;12.80;99.90
4908;DHT22;64375;51.540;7.364;2023-11-21T07:55:33;12.90;99.90
4908;DHT22;64375;51.540;7.364;2023-11-21T07:58:04;13.00;99.90
4908;DHT22;64375;51.540;7.364;2023-11-21T08:00:39;13.00;99.90
4908;DHT22;64375;51.540;7.364;2023-11-21T08:03:16;12.80;99.90
4908;DHT22;64375;51.540;7.364;2023-11-21T08:05:44;12.40;99.90
4908;DHT22;64375;51.540;7.364;2023-11-21T08:08:15;12.20;99.90
4908;DHT22;64375;51.540;7.364;2023-11-21T08:10:45;12.10;99.90
4908;DHT22;64375;51.540;7.364;2023-11-21T08:13:25;11.90;99.90
4908;DHT22;64375;51.540;7.364;2023-11-21T08:15:55;11.70;99.90
4908;DHT22;64375;51.540;7.364;2023-11-21T08:18:26;11.60;99.90
4908;DHT22;64375;51.540;7.364;2023-11-21T08:21:01;11.60;99.90
4908;DHT22;64375;51.540;7.364;2023-11-21T08:23:30;11.50;99.90
4908;DHT22;64375;51.540;7.364;2023-11-21T08:25:57;11.50;99.90
4908;DHT22;64375;51.540;7.364;2023-11-21T08:28:29;11.50;99.90
4908;DHT22;64375;51.540;7.364;2023-11-21T08:30:57;11.40;99.90
4908;DHT22;64375;51.540;7.364;2023-11-21T08:33:33;11.40;99.90
4908;DHT22;64375;51.540;7.364;2023-11-21T08:36:00;11.40;99.90
4908;DHT22;64375;51.540;7.364;2023-11-21T08:38:31;11.50;99.90
4908;DHT22;64375;51.540;7.364;2023-11-21T08:41:00;11.60;99.90
4908;DHT22;64375;51.540;7.364;2023-11-21T08:43:28;11.50;99.90
4908;DHT22;64375;51.540;7.364;2023-11-21T08:46:05;11.40;99.90
4908;DHT22;64375;51.540;7.364;2023-11-21T08:48:37;11.50;99.90
4908;DHT22;64375;51.540;7.364;2023-11-21T08:51:05;11.60;99.90
4908;DHT22;64375;51.540;7.364;2023-11-21T08:53:33;11.60;99.90
4908;DHT22;64375;51.540;7.364;2023-11-21T08:56:06;11.60;99.90
4908;DHT22;64375;51.540;7.364;2023-11-21T08:58:36;11.70;99.90
4908;DHT22;64375;51.540;7.364;2023-11-21T09:01:07;11.60;99.90
4908;DHT22;64375;51.540;7.364;2023-11-21T09:03:37;11.80;99.90
4908;DHT22;64375;51.540;7.364;2023-11-21T09:06:06;12.20;99.90
4908;DHT22;64375;51.540;7.364;2023-11-21T09:08:36;12.30;99.90
4908;DHT22;64375;51.540;7.364;2023-11-21T09:11:06;12.40;99.90
4908;DHT22;64375;51.540;7.364;2023-11-21T09:13:35;12.60;99.90
4908;DHT22;64375;51.540;7.364;2023-11-21T09:16:03;12.70;99.90
4908;DHT22;64375;51.540;7.364;2023-11-21T09:18:32;12.80;99.90
4908;DHT22;64375;51.540;7.364;2023-11-21T09:21:02;12.90;99.90
4908;DHT22;64375;51.540;7.364;2023-11-21T09:23:31;13.00;99.90
4908;DHT22;64375;51.540;7.364;2023-11-21T09:25:59;13.10;99.90
4908;DHT22;64375;51.540;7.364;2023-11-21T09:28:27;13.30;99.90
4908;DHT22;64375;51.540;7.364;2023-11-21T09:30:55;13.30;99.90
4908;DHT22;64375;51.540;7.364;2023-11-21T09:33:26;13.30;99.90
4908;DHT22;64375;51.540;7.364;2023-11-21T09:35:54;13.30;99.90
4908;DHT22;64375;51.540;7.364;2023-11-21T09:38:25;13.40;99.90
4908;DHT22;64375;51.540;7.364;2023-11-21T09:40:55;13.40;99.90
4908;DHT22;64375;51.540;7.364;2023-11-21T09:43:31;13.50;99.90
4908;DHT22;64375;51.540;7.364;2023-11-21T09:46:01;13.50;99.90
4908;DHT22;64375;51.540;7.364;2023-11-21T09:48:30;13.50;99.90
4908;DHT22;64375;51.540;7.364;2023-11-21T09:51:00;13.60;99.90
4908;DHT22;64375;51.540;7.364;2023-11-21T09:53:32;13.70;99.90
4908;DHT22;64375;51.540;7.364;2023-11-21T09:56:01;13.70;99.90
4908;DHT22;64375;51.540;7.364;2023-11-21T09:58:32;14.00;99.90
4908;DHT22;64375;51.540;7.364;2023-11-21T10:01:04;14.00;99.90
4908;DHT22;64375;51.540;7.364;2023-11-21T10:03:35;13.90;99.90
4908;DHT22;64375;51.540;7.364;2023-11-21T10:06:05;13.80;99.90
4908;DHT22;64375;51.540;7.364;2023-11-21T10:08:37;13.80;99.90
4908;DHT22;64375;51.540;7.364;2023-11-21T10:11:24;13.70;99.90
4908;DHT22;64375;51.540;7.364;2023-11-21T10:13:55;13.60;99.90
4908;DHT22;64375;51.540;7.364;2023-11-21T10:16:27;13.60;99.90
4908;DHT22;64375;51.540;7.364;2023-11-21T10:19:11;13.60;99.90
4908;DHT22;64375;51.540;7.364;2023-11-21T10:21:43;13.60;99.90
4908;DHT22;64375;51.540;7.364;2023-11-21T10:24:15;13.50;99.90
4908;DHT22;64375;51.540;7.364;2023-11-21T10:26:45;13.50;99.90
4908;DHT22;64375;51.540;7.364;2023-11-21T10:29:28;13.50;99.90
4908;DHT22;64375;51.540;7.364;2023-11-21T10:31:59;13.50;99.90
4908;DHT22;64375;51.540;7.364;2023-11-21T10:34:30;13.70;99.90
4908;DHT22;64375;51.540;7.364;2023-11-21T10:36:58;13.70;99.90
4908;DHT22;64375;51.540;7.364;2023-11-21T10:39:37;13.70;99.90
4908;DHT22;64375;51.540;7.364;2023-11-21T10:42:08;13.70;99.90
4908;DHT22;64375;51.540;7.364;2023-11-21T10:44:41;13.80;99.90
4908;DHT22;64375;51.540;7.364;2023-11-21T10:47:11;13.80;99.90
4908;DHT22;64375;51.540;7.364;2023-11-21T10:49:40;13.90;99.90
4908;DHT22;64375;51.540;7.364;2023-11-21T10:52:10;13.90;99.90
4908;DHT22;64375;51.540;7.364;2023-11-21T10:54:46;14.00;99.90
4908;DHT22;64375;51.540;7.364;2023-11-21T10:57:19;13.90;99.90
4908;DHT22;64375;51.540;7.364;2023-11-21T10:59:50;13.80;99.90
4908;DHT22;64375;51.540;7.364;2023-11-21T11:02:25;13.80;99.90
4908;DHT22;64375;51.540;7.364;2023-11-21T11:04:55;13.70;99.90
4908;DHT22;64375;51.540;7.364;2023-11-21T11:07:26;13.70;99.90
4908;DHT22;64375;51.540;7.364;2023-11-21T11:09:59;13.80;99.90
4908;DHT22;64375;51.540;7.364;2023-11-21T11:12:35;13.80;99.90
4908;DHT22;64375;51.540;7.364;2023-11-21T11:15:07;13.80;99.90
4908;DHT22;64375;51.540;7.364;2023-11-21T11:17:37;13.70;99.90
4908;DHT22;64375;51.540;7.364;2023-11-21T11:20:08;13.70;99.90
4908;DHT22;64375;51.540;7.364;2023-11-21T11:22:46;13.70;99.90
4908;DHT22;64375;51.540;7.364;2023-11-21T11:25:35;13.60;99.90
4908;DHT22;64375;51.540;7.364;2023-11-21T11:28:08;13.70;99.90
4908;DHT22;64375;51.540;7.364;2023-11-21T11:30:50;13.60;99.90
4908;DHT22;64375;51.540;7.364;2023-11-21T11:33:33;13.40;99.90
4908;DHT22;64375;51.540;7.364;2023-11-21T11:36:15;13.20;99.90
4908;DHT22;64375;51.540;7.364;2023-11-21T11:38:48;13.10;99.90
4908;DHT22;64375;51.540;7.364;2023-11-21T11:41:26;13.00;99.90
4908;DHT22;64375;51.540;7.364;2023-11-21T11:43:59;12.80;99.90
4908;DHT22;64375;51.540;7.364;2023-11-21T11:46:41;12.70;99.90
4908;DHT22;64375;51.540;7.364;2023-11-21T11:49:10;12.50;99.90
4908;DHT22;64375;51.540;7.364;2023-11-21T11:51:38;12.40;99.90
4908;DHT22;64375;51.540;7.364;2023-11-21T11:54:06;12.40;99.90
4908;DHT22;64375;51.540;7.364;2023-11-21T11:56:39;12.40;99.90
4908;DHT22;64375;51.540;7.364;2023-11-21T11:59:07;12.50;99.90
4908;DHT22;64375;51.540;7.364;2023-11-21T12:01:45;12.50;99.90
4908;DHT22;64375;51.540;7.364;2023-11-21T12:04:24;12.50;99.90
4908;DHT22;64375;51.540;7.364;2023-11-21T12:07:00;12.50;99.90
4908;DHT22;64375;51.540;7.364;2023-11-21T12:09:31;12.50;99.90
4908;DHT22;64375;51.540;7.364;2023-11-21T12:12:00;12.50;99.90
4908;DHT22;64375;51.540;7.364;2023-11-21T12:14:32;12.50;99.90
4908;DHT22;64375;51.540;7.364;2023-11-21T12:17:00;12.50;99.90
4908;DHT22;64375;51.540;7.364;2023-11-21T12:19:31;12.50;99.90
4908;DHT22;64375;51.540;7.364;2023-11-21T12:22:05;12.50;99.90
4908;DHT22;64375;51.540;7.364;2023-11-21T12:24:34;12.50;99.90
4908;DHT22;64375;51.540;7.364;2023-11-21T12:27:10;12.40;99.90
4908;DHT22;64375;51.540;7.364;2023-11-21T12:29:47;12.40;99.90
4908;DHT22;64375;51.540;7.364;2023-11-21T12:32:18;12.40;99.90
4908;DHT22;64375;51.540;7.364;2023-11-21T12:34:50;12.40;99.90
4908;DHT22;64375;51.540;7.364;2023-11-21T12:37:18;12.30;99.90
4908;DHT22;64375;51.540;7.364;2023-11-21T12:39:46;12.40;99.90
4908;DHT22;64375;51.540;7.364;2023-11-21T12:42:18;12.50;99.90
4908;DHT22;64375;51.540;7.364;2023-11-21T12:44:47;12.40;99.90
4908;DHT22;64375;51.540;7.364;2023-11-21T12:47:17;12.40;99.90
4908;DHT22;64375;51.540;7.364;2023-11-21T12:49:45;12.40;99.90
4908;DHT22;64375;51.540;7.364;2023-11-21T12:52:19;12.30;99.90
4908;DHT22;64375;51.540;7.364;2023-11-21T12:54:52;12.30;99.90
4908;DHT22;64375;51.540;7.364;2023-11-21T12:57:27;12.40;99.90
4908;DHT22;64375;51.540;7.364;2023-11-21T12:59:57;12.40;99.90
4908;DHT22;64375;51.540;7.364;2023-11-21T13:02:26;12.40;99.90
4908;DHT22;64375;51.540;7.364;2023-11-21T13:04:57;12.40;99.90
4908;DHT22;64375;51.540;7.364;2023-11-21T13:07:25;12.20;99.90
4908;DHT22;64375;51.540;7.364;2023-11-21T13:09:54;12.10;99.90
4908;DHT22;64375;51.540;7.364;2023-11-21T13:12:32;12.10;99.90
4908;DHT22;64375;51.540;7.364;2023-11-21T13:15:05;12.10;99.90
4908;DHT22;64375;51.540;7.364;2023-11-21T13:17:34;12.10;99.90
4908;DHT22;64375;51.540;7.364;2023-11-21T13:20:03;12.00;99.90
4908;DHT22;64375;51.540;7.364;2023-11-21T13:22:34;12.00;99.90
4908;DHT22;64375;51.540;7.364;2023-11-21T13:25:05;11.90;99.90
4908;DHT22;64375;51.540;7.364;2023-11-21T13:27:35;11.80;99.90
4908;DHT22;64375;51.540;7.364;2023-11-21T13:30:04;11.80;99.90
4908;DHT22;64375;51.540;7.364;2023-11-21T13:32:34;11.80;99.90
4908;DHT22;64375;51.540;7.364;2023-11-21T13:35:03;11.80;99.90
4908;DHT22;64375;51.540;7.364;2023-11-21T13:37:37;11.80;99.90
4908;DHT22;64375;51.540;7.364;2023-11-21T13:40:21;11.80;99.90
4908;DHT22;64375;51.540;7.364;2023-11-21T13:42:59;11.70;99.90
4908;DHT22;64375;51.540;7.364;2023-11-21T13:45:33;11.60;99.90
4908;DHT22;64375;51.540;7.364;2023-11-21T13:48:02;11.50;99.90
4908;DHT22;64375;51.540;7.364;2023-11-21T13:50:40;11.50;99.90
4908;DHT22;64375;51.540;7.364;2023-11-21T13:53:15;11.60;99.90
4908;DHT22;64375;51.540;7.364;2023-11-21T13:55:54;11.60;99.90
4908;DHT22;64375;51.540;7.364;2023-11-21T13:58:28;11.60;99.90
4908;DHT22;64375;51.540;7.364;2023-11-21T14:01:08;11.50;99.90
4908;DHT22;64375;51.540;7.364;2023-11-21T14:03:48;11.60;99.90
4908;DHT22;64375;51.540;7.364;2023-11-21T14:06:30;11.60;99.90
4908;DHT22;64375;51.540;7.364;2023-11-21T14:09:01;11.60;99.90
4908;DHT22;64375;51.540;7.364;2023-11-21T14:11:33;11.60;99.90
4908;DHT22;64375;51.540;7.364;2023-11-21T14:14:15;11.60;99.90
4908;DHT22;64375;51.540;7.364;2023-11-21T14:16:44;11.50;99.90
4908;DHT22;64375;51.540;7.364;2023-11-21T14:19:15;11.40;99.90
4908;DHT22;64375;51.540;7.364;2023-11-21T14:21:43;11.30;99.90
4908;DHT22;64375;51.540;7.364;2023-11-21T14:24:12;11.30;99.90
4908;DHT22;64375;51.540;7.364;2023-11-21T14:26:41;11.30;99.90
4908;DHT22;64375;51.540;7.364;2023-11-21T14:29:09;11.30;99.90
4908;DHT22;64375;51.540;7.364;2023-11-21T14:31:42;11.30;99.90
4908;DHT22;64375;51.540;7.364;2023-11-21T14:34:10;11.20;99.90
4908;DHT22;64375;51.540;7.364;2023-11-21T14:36:55;11.20;99.90
4908;DHT22;64375;51.540;7.364;2023-11-21T14:39:32;11.00;99.90
4908;DHT22;64375;51.540;7.364;2023-11-21T14:42:07;11.00;99.90
4908;DHT22;64375;51.540;7.364;2023-11-21T14:44:43;11.00;99.90
4908;DHT22;64375;51.540;7.364;2023-11-21T14:47:13;11.10;99.90
4908;DHT22;64375;51.540;7.364;2023-11-21T14:49:44;11.10;99.90
4908;DHT22;64375;51.540;7.364;2023-11-21T14:52:48;11.20;99.90
4908;DHT22;64375;51.540;7.364;2023-11-21T14:55:22;11.20;99.90
4908;DHT22;64375;51.540;7.364;2023-11-21T14:58:01;11.10;99.90
4908;DHT22;64375;51.540;7.364;2023-11-21T15:00:31;11.10;99.90
4908;DHT22;64375;51.540;7.364;2023-11-21T15:03:15;11.10;99.90
4908;DHT22;64375;51.540;7.364;2023-11-21T15:06:07;11.10;99.90
4908;DHT22;64375;51.540;7.364;2023-11-21T15:08:54;11.00;99.90
4908;DHT22;64375;51.540;7.364;2023-11-21T15:11:44;10.90;99.90
4908;DHT22;64375;51.540;7.364;2023-11-21T15:14:13;10.90;99.90
4908;DHT22;64375;51.540;7.364;2023-11-21T15:16:48;10.90;99.90
4908;DHT22;64375;51.540;7.364;2023-11-21T15:19:23;10.80;99.90
4908;DHT22;64375;51.540;7.364;2023-11-21T15:21:53;10.70;99.90
4908;DHT22;64375;51.540;7.364;2023-11-21T15:24:26;10.70;99.90
4908;DHT22;64375;51.540;7.364;2023-11-21T15:26:54;10.60;99.90
4908;DHT22;64375;51.540;7.364;2023-11-21T15:29:25;10.50;99.90
4908;DHT22;64375;51.540;7.364;2023-11-21T15:31:55;10.40;99.90
4908;DHT22;64375;51.540;7.364;2023-11-21T15:34:27;10.30;99.90
4908;DHT22;64375;51.540;7.364;2023-11-21T15:36:57;10.40;99.90
4908;DHT22;64375;51.540;7.364;2023-11-21T15:39:25;10.30;99.90
4908;DHT22;64375;51.540;7.364;2023-11-21T15:41:59;10.30;99.90
4908;DHT22;64375;51.540;7.364;2023-11-21T15:44:30;10.30;99.90
4908;DHT22;64375;51.540;7.364;2023-11-21T15:47:03;10.30;99.90
4908;DHT22;64375;51.540;7.364;2023-11-21T15:49:40;10.30;99.90
4908;DHT22;64375;51.540;7.364;2023-11-21T15:52:10;10.20;99.90
4908;DHT22;64375;51.540;7.364;2023-11-21T15:54:44;10.10;99.90
4908;DHT22;64375;51.540;7.364;2023-11-21T15:57:18;10.20;99.90
4908;DHT22;64375;51.540;7.364;2023-11-21T15:59:49;10.00;99.90
4908;DHT22;64375;51.540;7.364;2023-11-21T16:02:17;9.90;99.90
4908;DHT22;64375;51.540;7.364;2023-11-21T16:04:47;9.70;99.90
4908;DHT22;64375;51.540;7.364;2023-11-21T16:07:18;9.60;99.90
4908;DHT22;64375;51.540;7.364;2023-11-21T16:09:46;9.60;99.90
4908;DHT22;64375;51.540;7.364;2023-11-21T16:12:20;9.60;99.90
4908;DHT22;64375;51.540;7.364;2023-11-21T16:14:50;9.60;99.90
4908;DHT22;64375;51.540;7.364;2023-11-21T16:17:18;9.70;99.90